sensor_id;sensor_type;location;lat;lon;timestamp;temperature;humidity
13086;DHT22;6609;49.882;8.664;2022-12-07T00:02:26;5.40;88.50
13086;DHT22;6609;49.882;8.664;2022-12-07T00:04:53;5.50;88.00
13086;DHT22;6609;49.882;8.664;2022-12-07T00:07:19;5.50;89.10
13086;DHT22;6609;49.882;8.664;2022-12-07T00:09:47;5.50;88.40
13086;DHT22;6609;49.882;8.664;2022-12-07T00:12:14;5.50;87.90
13086;DHT22;6609;49.882;8.664;2022-12-07T00:14:41;5.50;87.80
13086;DHT22;6609;49.882;8.664;2022-12-07T00:17:07;5.50;88.20
13086;DHT22;6609;49.882;8.664;2022-12-07T00:19:34;5.50;88.30
13086;DHT22;6609;49.882;8.664;2022-12-07T00:22:01;5.60;88.30
13086;DHT22;6609;49.882;8.664;2022-12-07T00:24:27;5.50;87.60
13086;DHT22;6609;49.882;8.664;2022-12-07T00:26:55;5.50;88.10
13086;DHT22;6609;49.882;8.664;2022-12-07T00:29:22;5.60;87.60
13086;DHT22;6609;49.882;8.664;2022-12-07T00:31:49;5.60;88.00
13086;DHT22;6609;49.882;8.664;2022-12-07T00:34:17;5.60;87.80
13086;DHT22;6609;49.882;8.664;2022-12-07T00:36:44;5.60;87.10
13086;DHT22;6609;49.882;8.664;2022-12-07T00:39:11;5.60;87.60
13086;DHT22;6609;49.882;8.664;2022-12-07T00:41:38;5.60;86.90
13086;DHT22;6609;49.882;8.664;2022-12-07T00:44:06;5.60;87.40
13086;DHT22;6609;49.882;8.664;2022-12-07T00:46:33;5.60;86.70
13086;DHT22;6609;49.882;8.664;2022-12-07T00:48:59;5.60;87.20
13086;DHT22;6609;49.882;8.664;2022-12-07T00:51:26;5.60;86.50
13086;DHT22;6609;49.882;8.664;2022-12-07T00:53:53;5.60;86.50
13086;DHT22;6609;49.882;8.664;2022-12-07T00:56:22;5.60;86.40
13086;DHT22;6609;49.882;8.664;2022-12-07T00:58:53;5.60;87.00
13086;DHT22;6609;49.882;8.664;2022-12-07T01:01:22;5.60;86.30
13086;DHT22;6609;49.882;8.664;2022-12-07T01:03:54;5.60;86.70
13086;DHT22;6609;49.882;8.664;2022-12-07T01:06:23;5.50;86.10
13086;DHT22;6609;49.882;8.664;2022-12-07T01:08:50;5.60;86.80
13086;DHT22;6609;49.882;8.664;2022-12-07T01:11:19;5.50;86.10
13086;DHT22;6609;49.882;8.664;2022-12-07T01:13:46;5.50;86.00
13086;DHT22;6609;49.882;8.664;2022-12-07T01:16:14;5.50;86.50
13086;DHT22;6609;49.882;8.664;2022-12-07T01:18:46;5.50;85.70
13086;DHT22;6609;49.882;8.664;2022-12-07T01:21:14;5.40;85.70
13086;DHT22;6609;49.882;8.664;2022-12-07T01:23:42;5.40;86.30
13086;DHT22;6609;49.882;8.664;2022-12-07T01:26:12;5.50;86.50
13086;DHT22;6609;49.882;8.664;2022-12-07T01:28:39;5.50;86.20
13086;DHT22;6609;49.882;8.664;2022-12-07T01:31:08;5.50;86.20
13086;DHT22;6609;49.882;8.664;2022-12-07T01:33:36;5.50;86.20
13086;DHT22;6609;49.882;8.664;2022-12-07T01:36:06;5.60;86.20
13086;DHT22;6609;49.882;8.664;2022-12-07T01:38:34;5.60;86.80
13086;DHT22;6609;49.882;8.664;2022-12-07T01:41:02;5.60;86.70
13086;DHT22;6609;49.882;8.664;2022-12-07T01:43:31;5.60;86.30
13086;DHT22;6609;49.882;8.664;2022-12-07T01:45:58;5.50;86.80
13086;DHT22;6609;49.882;8.664;2022-12-07T01:48:29;5.60;86.30
13086;DHT22;6609;49.882;8.664;2022-12-07T01:51:00;5.50;86.70
13086;DHT22;6609;49.882;8.664;2022-12-07T01:53:30;5.50;86.30
13086;DHT22;6609;49.882;8.664;2022-12-07T01:55:59;5.50;87.50
13086;DHT22;6609;49.882;8.664;2022-12-07T01:58:26;5.50;86.70
13086;DHT22;6609;49.882;8.664;2022-12-07T02:00:52;5.50;86.30
13086;DHT22;6609;49.882;8.664;2022-12-07T02:03:24;5.40;86.30
13086;DHT22;6609;49.882;8.664;2022-12-07T02:05:53;5.50;86.40
13086;DHT22;6609;49.882;8.664;2022-12-07T02:08:20;5.50;86.20
13086;DHT22;6609;49.882;8.664;2022-12-07T02:10:49;5.40;86.70
13086;DHT22;6609;49.882;8.664;2022-12-07T02:13:19;5.40;86.70
13086;DHT22;6609;49.882;8.664;2022-12-07T02:16:06;5.40;86.20
13086;DHT22;6609;49.882;8.664;2022-12-07T02:18:46;5.40;86.70
13086;DHT22;6609;49.882;8.664;2022-12-07T02:21:19;5.40;86.10
13086;DHT22;6609;49.882;8.664;2022-12-07T02:27:19;5.40;86.70
13086;DHT22;6609;49.882;8.664;2022-12-07T02:29:58;5.40;86.00
13086;DHT22;6609;49.882;8.664;2022-12-07T02:32:31;5.40;86.50
13086;DHT22;6609;49.882;8.664;2022-12-07T02:35:06;5.40;85.90
13086;DHT22;6609;49.882;8.664;2022-12-07T02:37:37;5.50;86.60
13086;DHT22;6609;49.882;8.664;2022-12-07T02:40:09;5.40;86.40
13086;DHT22;6609;49.882;8.664;2022-12-07T02:42:41;5.40;86.50
13086;DHT22;6609;49.882;8.664;2022-12-07T02:45:13;5.40;86.00
13086;DHT22;6609;49.882;8.664;2022-12-07T02:47:42;5.40;86.50
13086;DHT22;6609;49.882;8.664;2022-12-07T02:50:10;5.40;86.50
13086;DHT22;6609;49.882;8.664;2022-12-07T02:52:37;5.40;86.40
13086;DHT22;6609;49.882;8.664;2022-12-07T02:55:04;5.50;86.40
13086;DHT22;6609;49.882;8.664;2022-12-07T02:57:42;5.50;85.70
13086;DHT22;6609;49.882;8.664;2022-12-07T03:00:16;5.50;85.70
13086;DHT22;6609;49.882;8.664;2022-12-07T03:02:53;5.50;86.20
13086;DHT22;6609;49.882;8.664;2022-12-07T03:05:45;5.50;85.70
13086;DHT22;6609;49.882;8.664;2022-12-07T03:08:23;5.50;85.80
13086;DHT22;6609;49.882;8.664;2022-12-07T03:10:56;5.50;85.70
13086;DHT22;6609;49.882;8.664;2022-12-07T03:13:28;5.50;86.20
13086;DHT22;6609;49.882;8.664;2022-12-07T03:16:00;5.50;86.20
13086;DHT22;6609;49.882;8.664;2022-12-07T03:18:31;5.40;85.90
13086;DHT22;6609;49.882;8.664;2022-12-07T03:21:04;5.40;86.40
13086;DHT22;6609;49.882;8.664;2022-12-07T03:23:34;5.40;86.50
13086;DHT22;6609;49.882;8.664;2022-12-07T03:26:02;5.40;86.60
13086;DHT22;6609;49.882;8.664;2022-12-07T03:28:34;5.40;86.30
13086;DHT22;6609;49.882;8.664;2022-12-07T03:31:09;5.40;86.40
13086;DHT22;6609;49.882;8.664;2022-12-07T03:33:41;5.40;86.90
13086;DHT22;6609;49.882;8.664;2022-12-07T03:36:12;5.40;86.30
13086;DHT22;6609;49.882;8.664;2022-12-07T03:38:46;5.40;86.20
13086;DHT22;6609;49.882;8.664;2022-12-07T03:41:18;5.40;86.30
13086;DHT22;6609;49.882;8.664;2022-12-07T03:43:45;5.40;86.40
13086;DHT22;6609;49.882;8.664;2022-12-07T03:46:19;5.40;86.30
13086;DHT22;6609;49.882;8.664;2022-12-07T03:48:54;5.40;86.80
13086;DHT22;6609;49.882;8.664;2022-12-07T03:51:28;5.40;86.30
13086;DHT22;6609;49.882;8.664;2022-12-07T03:54:00;5.40;86.40
13086;DHT22;6609;49.882;8.664;2022-12-07T03:56:29;5.30;86.50
13086;DHT22;6609;49.882;8.664;2022-12-07T03:58:56;5.30;86.90
13086;DHT22;6609;49.882;8.664;2022-12-07T04:01:24;5.30;86.40
13086;DHT22;6609;49.882;8.664;2022-12-07T04:03:51;5.30;87.00
13086;DHT22;6609;49.882;8.664;2022-12-07T04:06:18;5.30;87.20
13086;DHT22;6609;49.882;8.664;2022-12-07T04:08:45;5.30;87.10
13086;DHT22;6609;49.882;8.664;2022-12-07T04:11:12;5.30;86.70
13086;DHT22;6609;49.882;8.664;2022-12-07T04:13:38;5.30;87.20
13086;DHT22;6609;49.882;8.664;2022-12-07T04:16:19;5.30;87.30
13086;DHT22;6609;49.882;8.664;2022-12-07T04:18:47;5.40;87.10
13086;DHT22;6609;49.882;8.664;2022-12-07T04:21:14;5.30;86.50
13086;DHT22;6609;49.882;8.664;2022-12-07T04:23:40;5.20;87.00
13086;DHT22;6609;49.882;8.664;2022-12-07T04:26:07;5.30;87.00
13086;DHT22;6609;49.882;8.664;2022-12-07T04:28:34;5.30;86.90
13086;DHT22;6609;49.882;8.664;2022-12-07T04:31:00;5.30;86.90
13086;DHT22;6609;49.882;8.664;2022-12-07T04:33:27;5.30;87.30
13086;DHT22;6609;49.882;8.664;2022-12-07T04:35:55;7.20;89.00
13086;DHT22;6609;49.882;8.664;2022-12-07T04:38:22;5.30;87.10
13086;DHT22;6609;49.882;8.664;2022-12-07T04:40:49;5.40;87.20
13086;DHT22;6609;49.882;8.664;2022-12-07T04:43:15;5.40;87.00
13086;DHT22;6609;49.882;8.664;2022-12-07T04:45:46;5.40;87.10
13086;DHT22;6609;49.882;8.664;2022-12-07T04:48:12;5.40;87.60
13086;DHT22;6609;49.882;8.664;2022-12-07T04:50:40;5.40;87.30
13086;DHT22;6609;49.882;8.664;2022-12-07T04:53:08;5.30;86.70
13086;DHT22;6609;49.882;8.664;2022-12-07T04:55:34;5.30;87.20
13086;DHT22;6609;49.882;8.664;2022-12-07T04:58:01;5.30;87.70
13086;DHT22;6609;49.882;8.664;2022-12-07T05:00:28;5.30;86.80
13086;DHT22;6609;49.882;8.664;2022-12-07T05:02:55;5.30;87.20
13086;DHT22;6609;49.882;8.664;2022-12-07T05:05:21;5.30;86.70
13086;DHT22;6609;49.882;8.664;2022-12-07T05:07:48;5.30;87.30
13086;DHT22;6609;49.882;8.664;2022-12-07T05:10:17;5.30;87.30
13086;DHT22;6609;49.882;8.664;2022-12-07T05:12:43;5.30;87.20
13086;DHT22;6609;49.882;8.664;2022-12-07T05:15:11;5.30;86.80
13086;DHT22;6609;49.882;8.664;2022-12-07T05:17:38;5.30;86.80
13086;DHT22;6609;49.882;8.664;2022-12-07T05:20:06;5.30;87.30
13086;DHT22;6609;49.882;8.664;2022-12-07T05:22:33;5.40;86.70
13086;DHT22;6609;49.882;8.664;2022-12-07T05:25:00;5.40;86.70
13086;DHT22;6609;49.882;8.664;2022-12-07T05:27:28;5.40;86.70
13086;DHT22;6609;49.882;8.664;2022-12-07T05:29:55;5.40;87.20
13086;DHT22;6609;49.882;8.664;2022-12-07T05:32:21;5.40;87.10
13086;DHT22;6609;49.882;8.664;2022-12-07T05:34:48;5.40;87.20
13086;DHT22;6609;49.882;8.664;2022-12-07T05:37:15;5.30;87.10
13086;DHT22;6609;49.882;8.664;2022-12-07T05:39:42;5.30;87.20
13086;DHT22;6609;49.882;8.664;2022-12-07T05:42:10;5.30;87.20
13086;DHT22;6609;49.882;8.664;2022-12-07T05:44:43;5.30;87.30
13086;DHT22;6609;49.882;8.664;2022-12-07T05:47:10;5.40;87.10
13086;DHT22;6609;49.882;8.664;2022-12-07T05:49:37;5.40;87.00
13086;DHT22;6609;49.882;8.664;2022-12-07T05:52:04;5.40;87.50
13086;DHT22;6609;49.882;8.664;2022-12-07T05:54:31;5.40;87.40
13086;DHT22;6609;49.882;8.664;2022-12-07T05:56:58;5.40;87.50
13086;DHT22;6609;49.882;8.664;2022-12-07T05:59:25;5.40;87.00
13086;DHT22;6609;49.882;8.664;2022-12-07T06:01:55;5.40;87.10
13086;DHT22;6609;49.882;8.664;2022-12-07T06:04:23;5.30;87.50
13086;DHT22;6609;49.882;8.664;2022-12-07T06:06:50;5.30;87.40
13086;DHT22;6609;49.882;8.664;2022-12-07T06:09:17;5.30;87.60
13086;DHT22;6609;49.882;8.664;2022-12-07T06:11:44;5.40;87.70
13086;DHT22;6609;49.882;8.664;2022-12-07T06:14:28;5.40;87.70
13086;DHT22;6609;49.882;8.664;2022-12-07T06:16:57;5.30;87.70
13086;DHT22;6609;49.882;8.664;2022-12-07T06:19:24;5.40;87.60
13086;DHT22;6609;49.882;8.664;2022-12-07T06:21:51;5.30;88.10
13086;DHT22;6609;49.882;8.664;2022-12-07T06:24:18;5.40;87.70
13086;DHT22;6609;49.882;8.664;2022-12-07T06:26:45;5.40;88.10
13086;DHT22;6609;49.882;8.664;2022-12-07T06:29:12;5.40;88.20
13086;DHT22;6609;49.882;8.664;2022-12-07T06:31:39;5.40;88.20
13086;DHT22;6609;49.882;8.664;2022-12-07T06:34:10;5.50;88.30
13086;DHT22;6609;49.882;8.664;2022-12-07T06:36:37;5.50;88.20
13086;DHT22;6609;49.882;8.664;2022-12-07T06:39:05;5.50;88.10
13086;DHT22;6609;49.882;8.664;2022-12-07T06:41:33;5.50;87.60
13086;DHT22;6609;49.882;8.664;2022-12-07T06:43:59;5.50;88.10
13086;DHT22;6609;49.882;8.664;2022-12-07T06:46:26;5.50;88.10
13086;DHT22;6609;49.882;8.664;2022-12-07T06:48:53;5.50;87.60
13086;DHT22;6609;49.882;8.664;2022-12-07T06:51:21;5.50;87.60
13086;DHT22;6609;49.882;8.664;2022-12-07T06:53:48;5.50;87.30
13086;DHT22;6609;49.882;8.664;2022-12-07T06:56:15;5.50;87.40
13086;DHT22;6609;49.882;8.664;2022-12-07T07:01:10;5.40;87.30
13086;DHT22;6609;49.882;8.664;2022-12-07T07:03:36;5.50;87.60
13086;DHT22;6609;49.882;8.664;2022-12-07T07:06:04;5.50;87.60
13086;DHT22;6609;49.882;8.664;2022-12-07T07:08:32;5.50;87.70
13086;DHT22;6609;49.882;8.664;2022-12-07T07:10:58;5.60;88.20
13086;DHT22;6609;49.882;8.664;2022-12-07T07:13:25;5.50;87.80
13086;DHT22;6609;49.882;8.664;2022-12-07T07:18:20;5.60;87.70
13086;DHT22;6609;49.882;8.664;2022-12-07T07:20:46;5.60;88.10
13086;DHT22;6609;49.882;8.664;2022-12-07T07:23:13;5.60;88.10
13086;DHT22;6609;49.882;8.664;2022-12-07T07:25:41;5.60;88.00
13086;DHT22;6609;49.882;8.664;2022-12-07T07:28:08;5.60;88.10
13086;DHT22;6609;49.882;8.664;2022-12-07T07:30:34;5.60;87.60
13086;DHT22;6609;49.882;8.664;2022-12-07T07:33:03;5.60;88.10
13086;DHT22;6609;49.882;8.664;2022-12-07T07:35:31;5.60;88.00
13086;DHT22;6609;49.882;8.664;2022-12-07T07:37:58;5.70;88.10
13086;DHT22;6609;49.882;8.664;2022-12-07T07:40:26;5.60;87.50
13086;DHT22;6609;49.882;8.664;2022-12-07T07:42:56;5.70;87.50
13086;DHT22;6609;49.882;8.664;2022-12-07T07:45:25;5.70;87.40
13086;DHT22;6609;49.882;8.664;2022-12-07T07:47:52;5.70;87.90
13086;DHT22;6609;49.882;8.664;2022-12-07T07:50:19;5.70;87.50
13086;DHT22;6609;49.882;8.664;2022-12-07T07:52:46;5.70;87.40
13086;DHT22;6609;49.882;8.664;2022-12-07T07:55:13;5.70;87.40
13086;DHT22;6609;49.882;8.664;2022-12-07T07:57:43;5.70;87.50
13086;DHT22;6609;49.882;8.664;2022-12-07T08:00:13;5.70;87.30
13086;DHT22;6609;49.882;8.664;2022-12-07T08:02:40;5.70;87.30
13086;DHT22;6609;49.882;8.664;2022-12-07T08:05:09;5.70;87.30
13086;DHT22;6609;49.882;8.664;2022-12-07T08:10:04;5.80;87.50
13086;DHT22;6609;49.882;8.664;2022-12-07T08:12:31;5.80;87.90
13086;DHT22;6609;49.882;8.664;2022-12-07T08:15:01;5.70;87.10
13086;DHT22;6609;49.882;8.664;2022-12-07T08:17:29;5.70;87.20
13086;DHT22;6609;49.882;8.664;2022-12-07T08:19:56;5.70;87.70
13086;DHT22;6609;49.882;8.664;2022-12-07T08:22:23;5.80;87.40
13086;DHT22;6609;49.882;8.664;2022-12-07T08:24:49;5.80;87.80
13086;DHT22;6609;49.882;8.664;2022-12-07T08:27:16;5.80;88.00
13086;DHT22;6609;49.882;8.664;2022-12-07T08:29:43;5.90;87.30
13086;DHT22;6609;49.882;8.664;2022-12-07T08:32:09;5.90;87.80
13086;DHT22;6609;49.882;8.664;2022-12-07T08:34:37;6.00;87.50
13086;DHT22;6609;49.882;8.664;2022-12-07T08:37:04;6.10;87.30
13086;DHT22;6609;49.882;8.664;2022-12-07T08:39:31;6.20;87.20
13086;DHT22;6609;49.882;8.664;2022-12-07T08:41:57;6.20;86.90
13086;DHT22;6609;49.882;8.664;2022-12-07T08:44:24;6.30;87.50
13086;DHT22;6609;49.882;8.664;2022-12-07T08:46:55;6.20;87.20
13086;DHT22;6609;49.882;8.664;2022-12-07T08:49:25;6.30;86.80
13086;DHT22;6609;49.882;8.664;2022-12-07T08:51:55;6.20;86.50
13086;DHT22;6609;49.882;8.664;2022-12-07T08:54:21;6.20;86.40
13086;DHT22;6609;49.882;8.664;2022-12-07T08:56:49;6.30;86.40
13086;DHT22;6609;49.882;8.664;2022-12-07T08:59:18;6.20;86.80
13086;DHT22;6609;49.882;8.664;2022-12-07T09:01:45;6.20;86.30
13086;DHT22;6609;49.882;8.664;2022-12-07T09:04:12;6.30;86.40
13086;DHT22;6609;49.882;8.664;2022-12-07T09:06:39;6.30;86.50
13086;DHT22;6609;49.882;8.664;2022-12-07T09:09:07;6.50;86.10
13086;DHT22;6609;49.882;8.664;2022-12-07T09:14:02;6.80;86.50
13086;DHT22;6609;49.882;8.664;2022-12-07T09:16:29;7.20;86.90
13086;DHT22;6609;49.882;8.664;2022-12-07T09:18:55;7.30;87.50
13086;DHT22;6609;49.882;8.664;2022-12-07T09:21:22;8.30;84.70
13086;DHT22;6609;49.882;8.664;2022-12-07T09:23:49;8.30;85.30
13086;DHT22;6609;49.882;8.664;2022-12-07T09:26:17;8.90;80.30
13086;DHT22;6609;49.882;8.664;2022-12-07T09:28:44;8.90;80.70
13086;DHT22;6609;49.882;8.664;2022-12-07T09:31:11;9.90;81.40
13086;DHT22;6609;49.882;8.664;2022-12-07T09:33:37;11.00;73.90
13086;DHT22;6609;49.882;8.664;2022-12-07T09:36:04;11.40;72.60
13086;DHT22;6609;49.882;8.664;2022-12-07T09:38:31;11.80;70.40
13086;DHT22;6609;49.882;8.664;2022-12-07T09:41:04;11.80;67.50
13086;DHT22;6609;49.882;8.664;2022-12-07T09:43:34;11.50;65.80
13086;DHT22;6609;49.882;8.664;2022-12-07T09:46:01;11.00;65.60
13086;DHT22;6609;49.882;8.664;2022-12-07T09:48:31;10.50;65.60
13086;DHT22;6609;49.882;8.664;2022-12-07T09:51:00;10.00;65.60
13086;DHT22;6609;49.882;8.664;2022-12-07T09:53:33;10.00;66.10
13086;DHT22;6609;49.882;8.664;2022-12-07T09:56:01;9.10;68.00
13086;DHT22;6609;49.882;8.664;2022-12-07T09:58:29;8.80;68.80
13086;DHT22;6609;49.882;8.664;2022-12-07T10:01:00;8.50;69.20
13086;DHT22;6609;49.882;8.664;2022-12-07T10:03:28;8.30;69.80
13086;DHT22;6609;49.882;8.664;2022-12-07T10:05:55;8.30;70.40
13086;DHT22;6609;49.882;8.664;2022-12-07T10:08:24;7.80;71.00
13086;DHT22;6609;49.882;8.664;2022-12-07T10:10:53;7.70;72.10
13086;DHT22;6609;49.882;8.664;2022-12-07T10:13:22;7.60;72.50
13086;DHT22;6609;49.882;8.664;2022-12-07T10:15:51;7.60;73.10
13086;DHT22;6609;49.882;8.664;2022-12-07T10:18:26;8.00;74.10
13086;DHT22;6609;49.882;8.664;2022-12-07T10:21:10;7.40;74.30
13086;DHT22;6609;49.882;8.664;2022-12-07T10:23:38;7.40;74.60
13086;DHT22;6609;49.882;8.664;2022-12-07T10:26:32;7.40;75.20
13086;DHT22;6609;49.882;8.664;2022-12-07T10:29:01;7.30;75.50
13086;DHT22;6609;49.882;8.664;2022-12-07T10:31:28;7.30;75.70
13086;DHT22;6609;49.882;8.664;2022-12-07T10:33:58;7.30;76.00
13086;DHT22;6609;49.882;8.664;2022-12-07T10:36:27;7.30;76.30
13086;DHT22;6609;49.882;8.664;2022-12-07T10:39:00;7.20;76.40
13086;DHT22;6609;49.882;8.664;2022-12-07T10:43:55;7.40;77.20
13086;DHT22;6609;49.882;8.664;2022-12-07T10:46:43;7.40;77.70
13086;DHT22;6609;49.882;8.664;2022-12-07T10:49:39;7.50;78.00
13086;DHT22;6609;49.882;8.664;2022-12-07T10:52:17;8.00;76.50
13086;DHT22;6609;49.882;8.664;2022-12-07T10:54:53;8.20;76.30
13086;DHT22;6609;49.882;8.664;2022-12-07T10:57:36;8.40;75.90
13086;DHT22;6609;49.882;8.664;2022-12-07T11:00:12;8.40;75.30
13086;DHT22;6609;49.882;8.664;2022-12-07T11:02:57;8.40;74.90
13086;DHT22;6609;49.882;8.664;2022-12-07T11:05:29;8.50;75.30
13086;DHT22;6609;49.882;8.664;2022-12-07T11:08:05;8.50;75.30
13086;DHT22;6609;49.882;8.664;2022-12-07T11:10:41;8.50;74.80
13086;DHT22;6609;49.882;8.664;2022-12-07T11:13:18;8.50;74.00
13086;DHT22;6609;49.882;8.664;2022-12-07T11:16:00;8.50;73.80
13086;DHT22;6609;49.882;8.664;2022-12-07T11:18:32;8.50;74.40
13086;DHT22;6609;49.882;8.664;2022-12-07T11:21:09;8.40;73.20
13086;DHT22;6609;49.882;8.664;2022-12-07T11:23:46;8.30;73.10
13086;DHT22;6609;49.882;8.664;2022-12-07T11:26:23;8.30;73.10
13086;DHT22;6609;49.882;8.664;2022-12-07T11:29:07;8.30;72.90
13086;DHT22;6609;49.882;8.664;2022-12-07T11:31:51;8.30;73.30
13086;DHT22;6609;49.882;8.664;2022-12-07T11:34:29;8.20;72.20
13086;DHT22;6609;49.882;8.664;2022-12-07T11:37:01;8.20;72.70
13086;DHT22;6609;49.882;8.664;2022-12-07T11:39:34;8.20;72.40
13086;DHT22;6609;49.882;8.664;2022-12-07T11:42:06;8.20;72.00
13086;DHT22;6609;49.882;8.664;2022-12-07T11:44:47;8.20;72.00
13086;DHT22;6609;49.882;8.664;2022-12-07T11:47:17;8.20;71.80
13086;DHT22;6609;49.882;8.664;2022-12-07T11:49:53;8.20;71.90
13086;DHT22;6609;49.882;8.664;2022-12-07T11:52:26;8.30;71.70
13086;DHT22;6609;49.882;8.664;2022-12-07T11:54:54;8.30;72.30
13086;DHT22;6609;49.882;8.664;2022-12-07T11:57:25;8.20;71.60
13086;DHT22;6609;49.882;8.664;2022-12-07T11:59:59;8.20;72.10
13086;DHT22;6609;49.882;8.664;2022-12-07T12:02:32;8.10;71.50
13086;DHT22;6609;49.882;8.664;2022-12-07T12:05:07;8.00;71.20
13086;DHT22;6609;49.882;8.664;2022-12-07T12:07:41;8.30;71.90
13086;DHT22;6609;49.882;8.664;2022-12-07T12:10:17;8.00;71.80
13086;DHT22;6609;49.882;8.664;2022-12-07T12:15:45;7.80;71.30
13086;DHT22;6609;49.882;8.664;2022-12-07T12:18:28;7.80;71.50
13086;DHT22;6609;49.882;8.664;2022-12-07T12:21:02;7.70;71.60
13086;DHT22;6609;49.882;8.664;2022-12-07T12:23:37;7.70;72.10
13086;DHT22;6609;49.882;8.664;2022-12-07T12:26:13;7.70;71.50
13086;DHT22;6609;49.882;8.664;2022-12-07T12:28:49;7.70;71.60
13086;DHT22;6609;49.882;8.664;2022-12-07T12:31:31;7.80;71.70
13086;DHT22;6609;49.882;8.664;2022-12-07T12:33:59;7.80;72.10
13086;DHT22;6609;49.882;8.664;2022-12-07T12:36:43;7.80;71.40
13086;DHT22;6609;49.882;8.664;2022-12-07T12:39:13;7.80;71.40
13086;DHT22;6609;49.882;8.664;2022-12-07T12:42:00;7.70;71.30
13086;DHT22;6609;49.882;8.664;2022-12-07T12:44:41;7.70;71.10
13086;DHT22;6609;49.882;8.664;2022-12-07T12:47:42;7.70;71.70
13086;DHT22;6609;49.882;8.664;2022-12-07T12:50:18;7.70;71.10
13086;DHT22;6609;49.882;8.664;2022-12-07T12:52:52;7.60;71.00
13086;DHT22;6609;49.882;8.664;2022-12-07T12:58:35;7.60;71.50
13086;DHT22;6609;49.882;8.664;2022-12-07T13:01:38;7.60;71.70
13086;DHT22;6609;49.882;8.664;2022-12-07T13:07:11;7.50;71.90
13086;DHT22;6609;49.882;8.664;2022-12-07T13:09:42;7.50;72.20
13086;DHT22;6609;49.882;8.664;2022-12-07T13:12:14;7.50;72.50
13086;DHT22;6609;49.882;8.664;2022-12-07T13:14:56;7.50;72.60
13086;DHT22;6609;49.882;8.664;2022-12-07T13:17:56;7.60;72.90
13086;DHT22;6609;49.882;8.664;2022-12-07T13:20:52;7.60;73.40
13086;DHT22;6609;49.882;8.664;2022-12-07T13:23:22;7.60;73.30
13086;DHT22;6609;49.882;8.664;2022-12-07T13:25:54;7.60;73.30
13086;DHT22;6609;49.882;8.664;2022-12-07T13:28:31;7.60;73.70
13086;DHT22;6609;49.882;8.664;2022-12-07T13:31:19;7.60;73.60
13086;DHT22;6609;49.882;8.664;2022-12-07T13:33:47;7.60;73.60
13086;DHT22;6609;49.882;8.664;2022-12-07T13:36:19;9.00;75.40
13086;DHT22;6609;49.882;8.664;2022-12-07T13:38:51;7.70;74.00
13086;DHT22;6609;49.882;8.664;2022-12-07T13:41:20;7.80;73.80
13086;DHT22;6609;49.882;8.664;2022-12-07T13:43:59;7.80;73.20
13086;DHT22;6609;49.882;8.664;2022-12-07T13:46:43;7.80;73.80
13086;DHT22;6609;49.882;8.664;2022-12-07T13:49:20;7.80;73.50
13086;DHT22;6609;49.882;8.664;2022-12-07T13:51:47;7.80;73.10
13086;DHT22;6609;49.882;8.664;2022-12-07T13:54:14;7.80;73.60
13086;DHT22;6609;49.882;8.664;2022-12-07T13:56:41;7.80;72.80
13086;DHT22;6609;49.882;8.664;2022-12-07T13:59:14;7.90;72.80
13086;DHT22;6609;49.882;8.664;2022-12-07T14:01:42;7.90;72.80
13086;DHT22;6609;49.882;8.664;2022-12-07T14:04:19;7.90;73.40
13086;DHT22;6609;49.882;8.664;2022-12-07T14:06:52;7.90;72.20
13086;DHT22;6609;49.882;8.664;2022-12-07T14:09:20;7.90;72.00
13086;DHT22;6609;49.882;8.664;2022-12-07T14:11:49;7.80;72.20
13086;DHT22;6609;49.882;8.664;2022-12-07T14:14:20;7.80;72.20
13086;DHT22;6609;49.882;8.664;2022-12-07T14:16:59;7.80;72.40
13086;DHT22;6609;49.882;8.664;2022-12-07T14:19:49;7.80;72.80
13086;DHT22;6609;49.882;8.664;2022-12-07T14:22:32;7.80;72.80
13086;DHT22;6609;49.882;8.664;2022-12-07T14:25:13;7.70;72.80
13086;DHT22;6609;49.882;8.664;2022-12-07T14:27:49;7.70;73.10
13086;DHT22;6609;49.882;8.664;2022-12-07T14:30:18;7.70;73.20
13086;DHT22;6609;49.882;8.664;2022-12-07T14:32:52;7.60;72.80
13086;DHT22;6609;49.882;8.664;2022-12-07T14:35:20;7.60;72.50
13086;DHT22;6609;49.882;8.664;2022-12-07T14:37:48;7.70;72.60
13086;DHT22;6609;49.882;8.664;2022-12-07T14:40:17;7.70;72.40
13086;DHT22;6609;49.882;8.664;2022-12-07T14:42:46;7.60;71.90
13086;DHT22;6609;49.882;8.664;2022-12-07T14:45:17;7.70;72.60
13086;DHT22;6609;49.882;8.664;2022-12-07T14:47:45;7.60;72.20
13086;DHT22;6609;49.882;8.664;2022-12-07T14:50:13;7.60;72.10
13086;DHT22;6609;49.882;8.664;2022-12-07T14:52:42;7.60;72.20
13086;DHT22;6609;49.882;8.664;2022-12-07T14:55:14;7.50;72.50
13086;DHT22;6609;49.882;8.664;2022-12-07T14:57:43;7.60;73.10
13086;DHT22;6609;49.882;8.664;2022-12-07T15:00:14;7.50;73.20
13086;DHT22;6609;49.882;8.664;2022-12-07T15:02:44;7.50;73.80
13086;DHT22;6609;49.882;8.664;2022-12-07T15:05:11;7.50;73.90
13086;DHT22;6609;49.882;8.664;2022-12-07T15:07:39;7.40;74.00
13086;DHT22;6609;49.882;8.664;2022-12-07T15:10:14;7.40;74.40
13086;DHT22;6609;49.882;8.664;2022-12-07T15:12:41;7.40;74.50
13086;DHT22;6609;49.882;8.664;2022-12-07T15:15:09;7.40;74.60
13086;DHT22;6609;49.882;8.664;2022-12-07T15:17:36;7.40;74.50
13086;DHT22;6609;49.882;8.664;2022-12-07T15:20:05;7.40;75.00
13086;DHT22;6609;49.882;8.664;2022-12-07T15:22:34;7.40;74.80
13086;DHT22;6609;49.882;8.664;2022-12-07T15:25:00;7.40;74.20
13086;DHT22;6609;49.882;8.664;2022-12-07T15:27:30;7.30;74.60
13086;DHT22;6609;49.882;8.664;2022-12-07T15:29:56;7.20;74.80
13086;DHT22;6609;49.882;8.664;2022-12-07T15:32:23;7.10;75.30
13086;DHT22;6609;49.882;8.664;2022-12-07T15:34:50;7.00;75.90
13086;DHT22;6609;49.882;8.664;2022-12-07T15:37:18;6.90;76.90
13086;DHT22;6609;49.882;8.664;2022-12-07T15:39:44;6.80;77.70
13086;DHT22;6609;49.882;8.664;2022-12-07T15:42:11;6.80;78.20
13086;DHT22;6609;49.882;8.664;2022-12-07T15:44:38;6.60;78.80
13086;DHT22;6609;49.882;8.664;2022-12-07T15:47:22;6.60;79.30
13086;DHT22;6609;49.882;8.664;2022-12-07T15:49:49;6.60;79.80
13086;DHT22;6609;49.882;8.664;2022-12-07T15:52:15;6.50;80.30
13086;DHT22;6609;49.882;8.664;2022-12-07T15:54:43;6.50;80.90
13086;DHT22;6609;49.882;8.664;2022-12-07T15:57:10;6.50;81.60
13086;DHT22;6609;49.882;8.664;2022-12-07T15:59:37;6.50;82.20
13086;DHT22;6609;49.882;8.664;2022-12-07T16:02:03;6.50;82.90
13086;DHT22;6609;49.882;8.664;2022-12-07T16:04:30;6.50;83.20
13086;DHT22;6609;49.882;8.664;2022-12-07T16:06:58;6.40;83.80
13086;DHT22;6609;49.882;8.664;2022-12-07T16:09:26;6.40;84.40
13086;DHT22;6609;49.882;8.664;2022-12-07T16:11:54;6.40;84.90
13086;DHT22;6609;49.882;8.664;2022-12-07T16:19:15;6.40;85.50
13086;DHT22;6609;49.882;8.664;2022-12-07T16:24:09;6.40;87.00
13086;DHT22;6609;49.882;8.664;2022-12-07T16:29:06;6.40;87.80
13086;DHT22;6609;49.882;8.664;2022-12-07T16:31:33;6.40;88.00
13086;DHT22;6609;49.882;8.664;2022-12-07T16:34:00;6.40;87.90
13086;DHT22;6609;49.882;8.664;2022-12-07T16:38:53;6.50;87.60
13086;DHT22;6609;49.882;8.664;2022-12-07T16:41:20;6.50;87.20
13086;DHT22;6609;49.882;8.664;2022-12-07T16:43:47;6.50;86.90
13086;DHT22;6609;49.882;8.664;2022-12-07T16:46:15;6.50;87.30
13086;DHT22;6609;49.882;8.664;2022-12-07T16:48:43;6.50;87.20
13086;DHT22;6609;49.882;8.664;2022-12-07T16:51:11;6.40;86.30
13086;DHT22;6609;49.882;8.664;2022-12-07T16:53:39;6.40;85.90
13086;DHT22;6609;49.882;8.664;2022-12-07T16:56:10;6.50;86.00
13086;DHT22;6609;49.882;8.664;2022-12-07T17:01:09;6.50;85.60
13086;DHT22;6609;49.882;8.664;2022-12-07T17:03:37;6.40;86.00